createdAt,value
2023-03-26T00:01:02.029Z,9.93
2023-03-26T00:03:29.945Z,11.13
2023-03-26T00:06:04.009Z,8.55
2023-03-26T00:08:30.890Z,12.88
2023-03-26T00:10:58.053Z,8.60
2023-03-26T00:13:25.299Z,11.40
2023-03-26T00:15:53.090Z,12.40
2023-03-26T00:18:22.205Z,10.45
2023-03-26T00:20:48.616Z,19.70
2023-03-26T00:23:15.003Z,14.25
2023-03-26T00:25:43.292Z,13.95
2023-03-26T00:28:09.996Z,16.65
2023-03-26T00:30:36.445Z,12.50
2023-03-26T00:33:03.421Z,10.43
2023-03-26T00:35:30.276Z,9.73
2023-03-26T00:37:58.310Z,16.20
2023-03-26T00:40:25.178Z,8.60
2023-03-26T00:42:51.766Z,10.32
2023-03-26T00:45:21.247Z,7.90
2023-03-26T00:47:47.973Z,8.88
2023-03-26T00:50:17.614Z,6.72
2023-03-26T00:52:46.095Z,8.55
2023-03-26T00:55:13.197Z,8.65
2023-03-26T00:57:40.497Z,8.18
2023-03-26T01:00:11.067Z,10.70
2023-03-26T01:02:38.064Z,10.95
2023-03-26T01:05:36.393Z,8.10
2023-03-26T01:08:30.619Z,10.05
2023-03-26T01:11:03.095Z,9.93
2023-03-26T01:13:33.532Z,6.57
2023-03-26T01:16:01.986Z,8.82
2023-03-26T01:18:33.944Z,12.25
2023-03-26T01:21:05.436Z,6.05
2023-03-26T01:23:41.701Z,11.10
2023-03-26T01:26:18.676Z,8.65
2023-03-26T01:28:46.793Z,8.35
2023-03-26T01:31:30.126Z,7.80
2023-03-26T01:34:30.595Z,8.13
2023-03-26T01:37:08.865Z,13.02
2023-03-26T01:39:41.335Z,10.30
2023-03-26T01:42:14.222Z,11.25
2023-03-26T01:45:28.295Z,7.18
2023-03-26T01:47:55.069Z,8.45
2023-03-26T01:50:21.712Z,11.20
2023-03-26T01:52:48.163Z,12.25
2023-03-26T01:55:14.713Z,9.45
2023-03-26T01:57:50.173Z,9.18
2023-03-26T02:00:16.637Z,10.50
2023-03-26T02:02:56.632Z,18.35
2023-03-26T02:05:29.359Z,7.07
2023-03-26T02:08:02.903Z,11.15
2023-03-26T02:10:34.076Z,5.35
2023-03-26T02:13:01.344Z,11.07
2023-03-26T02:15:27.902Z,7.95
2023-03-26T02:17:54.520Z,13.45
2023-03-26T02:20:21.647Z,14.20
2023-03-26T02:22:48.485Z,8.48
2023-03-26T02:25:19.724Z,8.65
2023-03-26T02:27:49.469Z,10.38
2023-03-26T02:30:25.969Z,8.25
2023-03-26T02:32:59.112Z,15.98
2023-03-26T02:35:29.572Z,11.40
2023-03-26T02:37:59.237Z,8.70
2023-03-26T02:40:26.131Z,11.82
2023-03-26T02:42:52.991Z,13.60
2023-03-26T02:45:19.697Z,8.57
2023-03-26T02:51:02.796Z,6.63
2023-03-26T02:53:37.514Z,10.55
2023-03-26T02:56:30.157Z,8.52
2023-03-26T02:59:09.128Z,12.05
2023-03-26T03:01:36.924Z,10.60
2023-03-26T03:04:04.293Z,9.55
2023-03-26T03:06:35.057Z,15.00
2023-03-26T03:09:02.729Z,11.23
2023-03-26T03:11:35.924Z,13.68
2023-03-26T03:14:02.790Z,14.05
2023-03-26T03:16:31.269Z,16.52
2023-03-26T03:19:02.904Z,11.57
2023-03-26T03:21:36.986Z,20.23
2023-03-26T03:24:03.586Z,19.10
2023-03-26T03:26:34.298Z,15.65
2023-03-26T03:29:12.955Z,19.48
2023-03-26T03:31:41.152Z,13.93
2023-03-26T03:34:16.859Z,21.27
2023-03-26T03:36:49.981Z,24.02
2023-03-26T03:39:28.372Z,28.73
2023-03-26T03:41:54.952Z,22.27
2023-03-26T03:44:21.644Z,23.80
2023-03-26T03:46:49.277Z,33.67
2023-03-26T03:49:15.906Z,31.40
2023-03-26T03:51:42.736Z,19.25
2023-03-26T03:54:18.979Z,23.63
2023-03-26T03:56:47.220Z,20.92
2023-03-26T03:59:32.644Z,25.17
2023-03-26T04:01:59.806Z,27.80
2023-03-26T04:04:42.009Z,26.95
2023-03-26T04:07:11.720Z,25.83
2023-03-26T04:10:03.023Z,37.92
2023-03-26T04:12:49.270Z,28.52
2023-03-26T04:15:17.363Z,23.98
2023-03-26T04:17:45.421Z,26.33
2023-03-26T04:20:15.570Z,24.33
2023-03-26T04:22:44.170Z,21.80
2023-03-26T04:25:13.265Z,29.98
2023-03-26T04:27:58.435Z,31.88
2023-03-26T04:30:45.266Z,34.42
2023-03-26T04:33:32.541Z,21.70
2023-03-26T04:36:02.637Z,27.35
2023-03-26T04:38:43.781Z,25.27
2023-03-26T04:41:13.053Z,35.45
2023-03-26T04:44:02.544Z,32.78
2023-03-26T04:46:43.541Z,25.23
2023-03-26T04:49:17.047Z,26.98
2023-03-26T04:51:46.101Z,25.23
2023-03-26T04:54:32.452Z,27.13
2023-03-26T04:57:08.848Z,26.67
2023-03-26T04:59:54.939Z,26.52
2023-03-26T05:02:21.355Z,28.92
2023-03-26T05:04:51.727Z,21.08
2023-03-26T05:07:23.720Z,25.38
2023-03-26T05:09:53.599Z,32.85
2023-03-26T05:12:38.339Z,25.90
2023-03-26T05:15:10.823Z,41.55
2023-03-26T05:18:03.630Z,28.60
2023-03-26T05:20:43.364Z,40.33
2023-03-26T05:23:10.707Z,38.05
2023-03-26T05:25:41.142Z,45.00
2023-03-26T05:28:14.993Z,46.42
2023-03-26T05:30:53.186Z,38.42
2023-03-26T05:33:22.304Z,37.75
2023-03-26T05:36:02.960Z,29.90
2023-03-26T05:38:31.812Z,37.78
2023-03-26T05:41:04.470Z,39.22
2023-03-26T05:43:31.776Z,36.72
2023-03-26T05:46:20.317Z,50.42
2023-03-26T05:48:47.215Z,31.70
2023-03-26T05:51:15.698Z,26.55
2023-03-26T05:53:49.380Z,25.42
2023-03-26T05:56:51.239Z,28.77
2023-03-26T05:59:36.641Z,29.58
2023-03-26T06:02:21.819Z,23.02
2023-03-26T06:05:09.799Z,26.88
2023-03-26T06:07:52.421Z,25.50
2023-03-26T06:10:19.589Z,21.85
2023-03-26T06:12:46.240Z,28.30
2023-03-26T06:15:12.942Z,29.00
2023-03-26T06:17:58.041Z,28.00
2023-03-26T06:20:46.916Z,22.83
2023-03-26T06:23:31.047Z,22.45
2023-03-26T06:26:29.437Z,26.17
2023-03-26T06:29:16.035Z,28.00
2023-03-26T06:32:19.774Z,21.15
2023-03-26T06:34:53.259Z,20.55
2023-03-26T06:37:19.965Z,26.27
2023-03-26T06:39:47.757Z,25.92
2023-03-26T06:42:16.774Z,24.42
2023-03-26T06:45:01.782Z,21.27
2023-03-26T06:47:34.052Z,20.20
2023-03-26T06:50:19.307Z,27.50
2023-03-26T06:53:04.929Z,28.80
2023-03-26T06:55:53.558Z,24.02
2023-03-26T06:58:55.298Z,21.50
2023-03-26T07:01:31.109Z,27.27
2023-03-26T07:04:15.984Z,25.10
2023-03-26T07:07:11.612Z,17.67
2023-03-26T07:10:10.603Z,21.15
2023-03-26T07:12:47.763Z,21.67
2023-03-26T07:15:32.851Z,27.75
2023-03-26T07:18:18.239Z,25.90
2023-03-26T07:20:46.430Z,24.95
2023-03-26T07:23:15.574Z,29.98
2023-03-26T07:25:51.963Z,31.75
2023-03-26T07:29:04.779Z,23.30
2023-03-26T07:32:32.807Z,22.27
2023-03-26T07:35:28.545Z,22.42
2023-03-26T07:38:44.260Z,30.00
2023-03-26T07:41:42.942Z,28.30
2023-03-26T07:44:47.536Z,29.23
2023-03-26T07:47:34.827Z,25.38
2023-03-26T07:50:19.215Z,23.60
2023-03-26T07:53:04.482Z,27.48
2023-03-26T07:55:53.673Z,31.40
2023-03-26T07:59:05.274Z,31.33
2023-03-26T08:01:52.114Z,25.83
2023-03-26T08:05:10.376Z,21.90
2023-03-26T08:08:18.102Z,28.38
2023-03-26T08:11:22.863Z,28.50
2023-03-26T08:14:08.687Z,27.20
2023-03-26T08:16:53.292Z,31.63
2023-03-26T08:19:45.986Z,29.40
2023-03-26T08:22:56.684Z,32.25
2023-03-26T08:25:33.043Z,27.33
2023-03-26T08:28:14.021Z,27.45
2023-03-26T08:33:16.652Z,24.77
2023-03-26T08:35:44.058Z,25.15
2023-03-26T08:38:34.460Z,24.23
2023-03-26T08:41:28.724Z,18.33
2023-03-26T08:44:47.624Z,25.00
2023-03-26T08:47:22.921Z,18.27
2023-03-26T08:50:26.812Z,24.90
2023-03-26T08:53:24.437Z,23.40
2023-03-26T08:56:01.488Z,23.23
2023-03-26T08:59:22.298Z,27.10
2023-03-26T09:02:22.914Z,26.23
2023-03-26T09:05:08.177Z,26.55
2023-03-26T09:07:47.080Z,25.23
2023-03-26T09:10:28.130Z,32.10
2023-03-26T09:12:54.540Z,27.35
2023-03-26T09:15:54.781Z,32.20
2023-03-26T09:18:47.280Z,30.23
2023-03-26T09:21:34.007Z,20.33
2023-03-26T09:24:27.424Z,19.42
2023-03-26T09:27:33.397Z,25.92
2023-03-26T09:30:44.455Z,20.35
2023-03-26T09:33:22.425Z,24.35
2023-03-26T09:36:07.410Z,22.23
2023-03-26T09:38:43.826Z,17.13
2023-03-26T09:41:18.243Z,22.30
2023-03-26T09:44:10.462Z,18.67
2023-03-26T09:46:39.871Z,20.10
2023-03-26T09:49:43.768Z,27.70
2023-03-26T09:52:41.461Z,14.60
2023-03-26T09:55:28.475Z,19.42
2023-03-26T09:58:01.163Z,18.00
2023-03-26T10:00:49.417Z,21.67
2023-03-26T10:03:57.916Z,23.13
2023-03-26T10:06:48.714Z,12.43
2023-03-26T10:09:29.657Z,15.45
2023-03-26T10:12:09.652Z,14.18
2023-03-26T10:14:57.313Z,16.85
2023-03-26T10:17:55.651Z,15.05
2023-03-26T10:23:23.286Z,13.30
2023-03-26T10:26:03.146Z,20.40
2023-03-26T10:29:02.250Z,16.45
2023-03-26T10:31:51.321Z,10.40
2023-03-26T10:34:46.421Z,15.15
2023-03-26T10:37:32.470Z,12.95
2023-03-26T10:40:21.083Z,12.85
2023-03-26T10:43:19.694Z,13.52
2023-03-26T10:46:18.180Z,11.90
2023-03-26T10:49:03.477Z,13.05
2023-03-26T10:51:53.453Z,9.48
2023-03-26T10:54:31.198Z,13.50
2023-03-26T10:57:00.597Z,10.93
2023-03-26T10:59:27.513Z,13.30
2023-03-26T11:02:29.079Z,13.68
2023-03-26T11:05:22.169Z,16.70
2023-03-26T11:10:41.211Z,13.68
2023-03-26T11:13:43.132Z,11.80
2023-03-26T11:16:29.086Z,13.57
2023-03-26T11:19:16.468Z,13.23
2023-03-26T11:22:07.757Z,13.10
2023-03-26T11:25:05.467Z,12.68
2023-03-26T11:27:50.589Z,9.27
2023-03-26T11:30:32.418Z,9.93
2023-03-26T11:33:03.452Z,10.20
2023-03-26T11:35:40.858Z,15.13
2023-03-26T11:38:37.234Z,14.82
2023-03-26T11:41:11.765Z,13.35
2023-03-26T11:44:13.094Z,10.63
2023-03-26T11:46:43.704Z,8.10
2023-03-26T11:49:14.682Z,14.07
2023-03-26T11:51:43.099Z,10.43
2023-03-26T11:54:12.488Z,11.02
2023-03-26T11:57:05.914Z,22.85
2023-03-26T11:59:56.685Z,10.77
2023-03-26T12:02:38.720Z,15.55
2023-03-26T12:05:20.290Z,9.18
2023-03-26T12:07:53.546Z,13.63
2023-03-26T12:10:34.929Z,19.67
2023-03-26T12:13:19.101Z,11.73
2023-03-26T12:15:45.785Z,21.60
2023-03-26T12:18:27.415Z,15.48
2023-03-26T12:21:10.074Z,13.00
2023-03-26T12:23:43.467Z,14.27
2023-03-26T12:26:19.145Z,11.82
2023-03-26T12:28:50.186Z,11.90
2023-03-26T12:31:19.067Z,10.15
2023-03-26T12:34:07.666Z,10.23
2023-03-26T12:36:35.661Z,11.25
2023-03-26T12:40:08.661Z,12.75
2023-03-26T12:44:47.003Z,13.30
2023-03-26T12:45:22.743Z,11.38
2023-03-26T12:47:59.882Z,9.75
2023-03-26T12:50:57.062Z,18.67
2023-03-26T12:53:46.171Z,9.52
2023-03-26T12:56:43.141Z,7.32
2023-03-26T12:59:28.744Z,14.45
2023-03-26T13:02:07.058Z,10.80
2023-03-26T13:05:04.358Z,9.82
2023-03-26T13:07:50.754Z,10.70
2023-03-26T13:10:31.443Z,9.05
2023-03-26T13:13:11.468Z,9.32
2023-03-26T13:16:07.652Z,10.13
2023-03-26T13:18:53.161Z,11.73
2023-03-26T13:21:26.601Z,5.68
2023-03-26T13:24:06.178Z,7.55
2023-03-26T13:27:00.275Z,8.48
2023-03-26T13:29:56.290Z,10.30
2023-03-26T13:32:46.356Z,9.18
2023-03-26T13:35:27.305Z,7.45
2023-03-26T13:38:26.306Z,12.38
2023-03-26T13:41:11.239Z,7.60
2023-03-26T13:44:04.083Z,7.80
2023-03-26T13:46:42.591Z,4.78
2023-03-26T13:49:19.681Z,10.48
2023-03-26T13:52:00.701Z,9.20
2023-03-26T13:54:31.175Z,9.48
2023-03-26T13:59:55.608Z,11.32
2023-03-26T14:02:48.578Z,4.32
2023-03-26T14:05:26.391Z,6.97
2023-03-26T14:08:00.218Z,11.27
2023-03-26T14:10:30.998Z,10.77
2023-03-26T14:13:07.326Z,9.15
2023-03-26T14:15:45.825Z,8.73
2023-03-26T14:18:21.376Z,7.43
2023-03-26T14:21:28.605Z,9.68
2023-03-26T14:24:23.028Z,6.55
2023-03-26T14:26:58.246Z,4.72
2023-03-26T14:29:35.591Z,4.82
2023-03-26T14:32:24.136Z,6.47
2023-03-26T14:35:15.535Z,6.88
2023-03-26T14:38:07.135Z,9.20
2023-03-26T14:40:33.494Z,4.85
2023-03-26T14:43:19.617Z,8.00
2023-03-26T14:45:52.174Z,7.25
2023-03-26T14:49:02.781Z,4.82
2023-03-26T14:52:06.021Z,7.93
2023-03-26T14:54:36.923Z,5.72
2023-03-26T14:57:28.220Z,4.45
2023-03-26T15:00:25.268Z,3.95
2023-03-26T15:03:10.102Z,7.30
2023-03-26T15:05:45.767Z,9.85
2023-03-26T15:08:37.557Z,6.13
2023-03-26T15:11:41.404Z,7.47
2023-03-26T15:14:31.585Z,6.32
2023-03-26T15:17:19.452Z,8.55
2023-03-26T15:20:31.678Z,7.47
2023-03-26T15:23:17.524Z,5.28
2023-03-26T15:25:56.033Z,6.45
2023-03-26T15:28:56.458Z,5.00
2023-03-26T15:31:47.574Z,7.93
2023-03-26T15:34:34.934Z,4.80
2023-03-26T15:37:34.360Z,8.30
2023-03-26T15:40:09.874Z,9.25
2023-03-26T15:43:01.459Z,7.53
2023-03-26T15:45:27.944Z,6.40
2023-03-26T15:48:34.185Z,11.63
2023-03-26T15:51:09.794Z,5.80
2023-03-26T15:53:48.621Z,9.43
2023-03-26T15:56:43.960Z,9.65
2023-03-26T15:59:37.418Z,5.75
2023-03-26T16:02:07.443Z,8.23
2023-03-26T16:04:51.993Z,8.27
2023-03-26T16:07:26.214Z,6.60
2023-03-26T16:10:16.090Z,11.52
2023-03-26T16:13:06.317Z,8.30
2023-03-26T16:15:33.259Z,6.00
2023-03-26T16:18:12.204Z,4.65
2023-03-26T16:20:54.555Z,5.78
2023-03-26T16:23:47.722Z,6.03
2023-03-26T16:26:41.041Z,12.20
2023-03-26T16:29:29.830Z,9.57
2023-03-26T16:32:05.213Z,6.82
2023-03-26T16:34:54.875Z,8.07
2023-03-26T16:37:35.911Z,5.68
2023-03-26T16:40:17.854Z,6.43
2023-03-26T16:43:11.732Z,4.70
2023-03-26T16:45:50.566Z,3.45
2023-03-26T16:48:30.400Z,6.13
2023-03-26T16:51:22.935Z,7.63
2023-03-26T16:54:12.188Z,7.30
2023-03-26T16:56:47.530Z,3.13
2023-03-26T16:59:26.621Z,4.43
2023-03-26T17:02:06.808Z,9.48
2023-03-26T17:04:35.503Z,3.83
2023-03-26T17:07:21.714Z,5.03
2023-03-26T17:09:51.820Z,5.15
2023-03-26T17:12:30.210Z,4.28
2023-03-26T17:15:21.497Z,2.15
2023-03-26T17:18:03.461Z,6.30
2023-03-26T17:20:40.556Z,6.85
2023-03-26T17:23:40.424Z,5.43
2023-03-26T17:26:42.857Z,4.22
2023-03-26T17:29:28.898Z,3.78
2023-03-26T17:32:08.404Z,3.67
2023-03-26T17:34:55.782Z,4.38
2023-03-26T17:37:22.152Z,7.78
2023-03-26T17:39:57.862Z,12.13
2023-03-26T17:42:38.206Z,5.07
2023-03-26T17:45:17.451Z,2.70
2023-03-26T17:47:48.268Z,5.72
2023-03-26T17:50:22.603Z,6.28
2023-03-26T17:53:31.564Z,5.93
2023-03-26T17:56:03.772Z,13.35
2023-03-26T17:58:35.966Z,6.22
2023-03-26T18:01:05.471Z,5.50
2023-03-26T18:03:49.668Z,6.45
2023-03-26T18:06:57.677Z,5.20
2023-03-26T18:09:58.477Z,7.78
2023-03-26T18:12:37.756Z,5.68
2023-03-26T18:15:30.165Z,7.13
2023-03-26T18:18:11.732Z,6.78
2023-03-26T18:20:38.409Z,6.35
2023-03-26T18:23:10.673Z,7.90
2023-03-26T18:25:37.771Z,6.95
2023-03-26T18:28:05.560Z,5.50
2023-03-26T18:30:32.236Z,4.28
2023-03-26T18:33:13.576Z,4.15
2023-03-26T18:35:46.315Z,8.75
2023-03-26T18:38:37.751Z,8.95
2023-03-26T18:43:44.159Z,4.35
2023-03-26T18:46:13.932Z,3.67
2023-03-26T18:48:40.719Z,8.07
2023-03-26T18:51:07.871Z,6.22
2023-03-26T18:53:48.284Z,5.07
2023-03-26T18:56:29.846Z,8.90
2023-03-26T18:59:03.189Z,6.55
2023-03-26T19:01:32.185Z,4.10
2023-03-26T19:04:05.982Z,11.73
2023-03-26T19:06:36.084Z,3.58
2023-03-26T19:09:23.825Z,8.45
2023-03-26T19:11:57.335Z,4.78
2023-03-26T19:14:26.390Z,7.97
2023-03-26T19:16:58.758Z,9.68
2023-03-26T19:19:32.421Z,9.45
2023-03-26T19:21:59.818Z,4.72
2023-03-26T19:24:27.036Z,11.00
2023-03-26T19:26:53.956Z,9.88
2023-03-26T19:29:27.246Z,9.52
2023-03-26T19:32:15.903Z,6.90
2023-03-26T19:34:45.003Z,11.15
2023-03-26T19:37:30.683Z,3.20
2023-03-26T19:40:14.658Z,7.00
2023-03-26T19:42:44.752Z,7.00
2023-03-26T19:45:19.133Z,3.38
2023-03-26T19:47:50.141Z,6.32
2023-03-26T19:50:30.180Z,7.40
2023-03-26T19:53:16.238Z,7.65
2023-03-26T19:58:19.714Z,5.15
2023-03-26T20:00:46.235Z,7.25
2023-03-26T20:03:13.238Z,9.30
2023-03-26T20:05:39.853Z,8.10
2023-03-26T20:08:14.290Z,4.15
2023-03-26T20:10:42.433Z,6.55
2023-03-26T20:13:15.890Z,4.88
2023-03-26T20:15:47.092Z,3.85
2023-03-26T20:18:13.693Z,5.20
2023-03-26T20:20:41.306Z,5.55
2023-03-26T20:23:17.617Z,3.17
2023-03-26T20:25:52.739Z,7.40
2023-03-26T20:30:50.078Z,2.85
2023-03-26T20:33:25.364Z,6.35
2023-03-26T20:35:53.722Z,4.00
2023-03-26T20:38:24.011Z,5.60
2023-03-26T20:40:56.294Z,7.07
2023-03-26T20:43:25.071Z,7.82
2023-03-26T20:45:51.999Z,5.65
2023-03-26T20:48:18.632Z,4.93
2023-03-26T20:50:50.650Z,4.30
2023-03-26T20:53:18.823Z,4.30
2023-03-26T20:55:46.592Z,5.63
2023-03-26T20:58:14.980Z,5.93
2023-03-26T21:00:44.519Z,5.95
2023-03-26T21:03:17.001Z,6.28
2023-03-26T21:05:44.979Z,7.53
2023-03-26T21:08:18.097Z,5.78
2023-03-26T21:10:47.702Z,6.18
2023-03-26T21:13:32.294Z,5.60
2023-03-26T21:16:00.926Z,6.70
2023-03-26T21:18:28.567Z,5.15
2023-03-26T21:21:18.199Z,3.35
2023-03-26T21:24:37.263Z,5.53
2023-03-26T21:29:39.529Z,6.05
2023-03-26T21:32:06.366Z,8.63
2023-03-26T21:34:33.561Z,5.80
2023-03-26T21:37:01.583Z,4.63
2023-03-26T21:39:29.823Z,3.75
2023-03-26T21:42:05.026Z,5.63
2023-03-26T21:44:33.422Z,5.68
2023-03-26T21:47:00.568Z,5.75
2023-03-26T21:49:27.539Z,5.80
2023-03-26T21:51:54.248Z,3.53
2023-03-26T21:54:26.911Z,6.55
2023-03-26T21:57:12.550Z,4.85
2023-03-26T22:00:15.191Z,3.63
2023-03-26T22:03:16.055Z,4.30
2023-03-26T22:06:10.535Z,6.38
2023-03-26T22:08:41.363Z,8.25
2023-03-26T22:11:11.212Z,7.72
2023-03-26T22:13:39.092Z,3.85
2023-03-26T22:16:07.645Z,9.07
2023-03-26T22:18:34.670Z,2.15
2023-03-26T22:21:01.803Z,3.75
2023-03-26T22:23:36.205Z,4.13
2023-03-26T22:26:03.929Z,4.68
2023-03-26T22:28:30.861Z,7.00
2023-03-26T22:30:58.197Z,4.93
2023-03-26T22:33:24.897Z,4.90
2023-03-26T22:35:52.188Z,4.82
2023-03-26T22:38:19.090Z,4.82
2023-03-26T22:40:45.516Z,4.13
2023-03-26T22:43:12.238Z,2.85
2023-03-26T22:45:38.701Z,4.82
2023-03-26T22:48:05.301Z,5.97
2023-03-26T22:50:32.538Z,3.45
2023-03-26T22:52:59.295Z,2.85
2023-03-26T22:55:28.379Z,7.88
2023-03-26T22:57:55.807Z,6.40
2023-03-26T23:00:22.403Z,3.00
2023-03-26T23:02:49.049Z,7.38
2023-03-26T23:05:17.590Z,4.70
2023-03-26T23:07:45.945Z,3.70
2023-03-26T23:10:13.507Z,6.95
2023-03-26T23:12:40.301Z,6.57
2023-03-26T23:15:07.742Z,3.92
2023-03-26T23:17:36.046Z,6.05
2023-03-26T23:20:06.035Z,3.00
2023-03-26T23:22:32.598Z,3.85
2023-03-26T23:24:59.080Z,4.72
2023-03-26T23:27:25.576Z,6.63
2023-03-26T23:29:51.975Z,2.67
2023-03-26T23:32:23.409Z,2.60
2023-03-26T23:34:51.569Z,2.17
2023-03-26T23:37:23.094Z,3.95
2023-03-26T23:39:50.908Z,2.75
2023-03-26T23:42:17.984Z,4.22
2023-03-26T23:44:56.512Z,2.30
2023-03-26T23:47:23.048Z,5.10
2023-03-26T23:49:49.860Z,2.20
2023-03-26T23:52:16.616Z,3.08
2023-03-26T23:54:43.096Z,2.58
2023-03-26T23:57:10.460Z,5.82
2023-03-26T23:59:36.969Z,2.88
